Gaspé Airport, Quebec

Past 24 Hour Conditions

This table is a summary of hourly weather conditions for the past 24 hours. This summary includes the following parameters: temperature, humidity, dew point, wind speed and direction, air pressure, visibility and/or wind chill and humidex.
Date / Time
(EDT)
Conditions Temp (°F) Humidity (%) Dew Point (°F) Wind (mph) Pressure (inches) Vis (mi) Wind Chill
21 September 2014
1:00 Cloudy 57   80 51 WSW 12 gust 20 29.9 15 *
00:00 Cloudy 55 82 50 N 3 29.9 15 *
20 September 2014
23:00 Light Rainshower 55 81 50 WSW 3 29.9 15 *
22:00 Cloudy 56 76 48 W 5 29.9 15 *
21:00 Cloudy 55 73 47 W 4 29.9 15 *
20:00 Mostly Cloudy 56 69 46 W 12 gust 21 29.9 15 *
19:00 Mostly Cloudy 56 68 46 WSW 8 gust 23 29.9 15 *
18:00 Mostly Cloudy 55 66 44 W 10 gust 18 29.9 15 *
17:00 Mostly Cloudy 55 65 43 W 7 gust 17 29.9 15 *
16:00 Mostly Cloudy 55 61 42 SW 11 gust 24 29.9 15 *
15:00 Mostly Cloudy 55 58 41 S 4 29.9 15 *
14:00 Mostly Cloudy 52 59 38 S 6 29.9 15 *
13:00 Mostly Cloudy 51 59 38 WNW 5 29.9 15 *
12:00 Mostly Cloudy 49 58 35 WSW 13 30.0 15 *
11:00 Mostly Cloudy 49 52 33 W 13 30.0 15 *
10:00 Cloudy 49 50 31 WSW 16 gust 25 30.0 15 *
9:00 Mostly Cloudy 48 52 31 W 14 gust 22 30.0 15 *
8:00 Mostly Cloudy 47 52 30 WSW 8 gust 17 30.1 15 *
7:00 Mostly Cloudy 47 48 28 W 11 30.1 15 *
6:00 Mostly Cloudy 47 45 26 W 11 gust 19 30.1 15 *
5:00 Cloudy 46 44 26 WNW 9 gust 18 30.1 15 *
4:00 Cloudy 43 52 27 W 10 30.2 15 *
3:00 Cloudy 33 86 30 NNW 3 30.2 15 *
2:00 Clear 30   93 28 calm 30.2 15 29
1:00 Clear 30   93 28 calm 30.2 15 *
N/A
Not available
 ↑ 
Highest temperature
 ↓ 
Lowest temperature
*
Value not significant.

If you require additional historical weather information, please visit Climate Data Online.